createdAt,value
2022-08-23T03:48:10.660Z,9.63
2022-08-23T03:50:38.294Z,8.02
2022-08-23T03:53:05.815Z,9.30
2022-08-23T03:55:33.365Z,12.30
2022-08-23T03:58:10.318Z,8.80
2022-08-23T04:00:37.868Z,9.98
2022-08-23T04:03:05.079Z,8.40
2022-08-23T04:05:39.454Z,10.82
2022-08-23T04:08:14.048Z,8.02
2022-08-23T04:10:46.128Z,8.40
2022-08-23T04:13:13.173Z,9.48
2022-08-23T04:15:40.748Z,9.80
2022-08-23T04:18:11.018Z,10.00
2022-08-23T04:20:38.204Z,9.05
2022-08-23T04:23:05.984Z,9.50
2022-08-23T04:25:45.686Z,9.20
2022-08-23T04:28:12.845Z,9.75
2022-08-23T04:30:39.848Z,9.65
2022-08-23T04:33:10.826Z,10.02
2022-08-23T04:35:41.472Z,10.57
2022-08-23T04:38:24.314Z,9.90
2022-08-23T04:41:13.269Z,10.82
2022-08-23T04:43:42.152Z,11.55
2022-08-23T04:46:14.673Z,10.73
2022-08-23T04:48:43.380Z,10.82
2022-08-23T04:51:11.161Z,11.10
2022-08-23T04:53:39.287Z,11.13
2022-08-23T04:56:35.142Z,10.38
2022-08-23T04:59:03.121Z,11.07
2022-08-23T05:01:30.789Z,10.60
2022-08-23T05:03:58.263Z,10.50
2022-08-23T05:06:27.700Z,10.85
2022-08-23T05:08:54.896Z,10.80
2022-08-23T05:11:22.481Z,11.20
2022-08-23T05:13:50.588Z,9.18
2022-08-23T05:16:17.646Z,10.35
2022-08-23T05:18:53.688Z,9.73
2022-08-23T05:21:23.259Z,9.63
2022-08-23T05:23:51.026Z,9.77
2022-08-23T05:26:23.843Z,9.70
2022-08-23T05:28:50.900Z,9.10
2022-08-23T05:31:26.353Z,10.05
2022-08-23T05:33:55.657Z,9.75
2022-08-23T05:36:32.734Z,9.82
2022-08-23T05:39:00.803Z,9.70
2022-08-23T05:41:37.686Z,9.63
2022-08-23T05:44:08.072Z,9.90
2022-08-23T05:46:36.839Z,9.32
2022-08-23T05:49:37.211Z,8.90
2022-08-23T05:52:09.943Z,9.02
2022-08-23T05:54:38.127Z,9.40
2022-08-23T05:57:31.704Z,8.50
2022-08-23T05:59:58.731Z,8.68
2022-08-23T06:02:25.868Z,8.45
2022-08-23T06:04:57.138Z,7.88
2022-08-23T06:07:24.513Z,7.70
2022-08-23T06:09:52.742Z,7.88
2022-08-23T06:12:20.044Z,7.75
2022-08-23T06:14:47.097Z,8.35
2022-08-23T06:17:14.392Z,8.30
2022-08-23T06:19:41.706Z,7.72
2022-08-23T06:22:30.658Z,8.25
2022-08-23T06:24:59.239Z,8.35
2022-08-23T06:27:41.514Z,7.57
2022-08-23T06:30:09.380Z,7.53
2022-08-23T06:32:46.621Z,7.30
2022-08-23T06:35:38.727Z,7.53
2022-08-23T06:38:20.681Z,7.38
2022-08-23T06:41:11.968Z,7.63
2022-08-23T06:43:42.814Z,8.00
2022-08-23T06:46:30.005Z,7.55
2022-08-23T06:48:58.045Z,7.40
2022-08-23T06:51:31.861Z,7.65
2022-08-23T06:54:22.562Z,7.72
2022-08-23T06:57:28.239Z,7.85
2022-08-23T07:00:18.913Z,8.38
2022-08-23T07:03:12.882Z,7.00
2022-08-23T07:05:58.694Z,7.07
2022-08-23T07:08:28.548Z,8.32
2022-08-23T07:10:58.392Z,7.18
2022-08-23T07:13:25.593Z,7.10
2022-08-23T07:15:57.690Z,7.50
2022-08-23T07:18:25.930Z,8.48
2022-08-23T07:21:03.005Z,8.02
2022-08-23T07:23:33.277Z,7.32
2022-08-23T07:26:07.646Z,8.60
2022-08-23T07:28:35.264Z,6.80
2022-08-23T07:31:20.440Z,7.40
2022-08-23T07:33:48.280Z,7.35
2022-08-23T07:36:22.306Z,7.03
2022-08-23T07:38:51.624Z,8.20
2022-08-23T07:41:20.535Z,7.00
2022-08-23T07:43:48.430Z,6.38
2022-08-23T07:46:16.050Z,7.68
2022-08-23T07:48:54.079Z,7.68
2022-08-23T07:51:30.976Z,6.75
2022-08-23T07:53:58.688Z,7.20
2022-08-23T07:56:25.676Z,7.88
2022-08-23T07:59:08.445Z,7.50
2022-08-23T08:01:53.654Z,7.05
2022-08-23T08:04:22.683Z,7.75
2022-08-23T08:07:10.489Z,7.38
2022-08-23T08:09:43.482Z,6.43
2022-08-23T08:12:11.937Z,7.90
2022-08-23T08:14:42.438Z,7.35
2022-08-23T08:17:10.905Z,8.35
2022-08-23T08:19:58.099Z,6.38
2022-08-23T08:22:59.062Z,7.47
2022-08-23T08:26:20.474Z,7.53
2022-08-23T08:28:56.403Z,7.03
2022-08-23T08:31:25.444Z,6.60
2022-08-23T08:33:54.539Z,7.40
2022-08-23T08:36:35.363Z,7.65
2022-08-23T08:39:07.994Z,7.93
2022-08-23T08:41:55.120Z,7.55
2022-08-23T08:44:52.937Z,8.80
2022-08-23T08:47:28.094Z,8.18
2022-08-23T08:49:55.178Z,8.60
2022-08-23T08:52:26.438Z,7.80
2022-08-23T08:55:04.908Z,7.97
2022-08-23T08:57:38.400Z,8.75
2022-08-23T09:00:09.622Z,7.50
2022-08-23T09:02:39.166Z,8.18
2022-08-23T09:05:19.700Z,9.25
2022-08-23T09:08:13.489Z,8.05
2022-08-23T09:10:54.298Z,7.88
2022-08-23T09:13:55.417Z,8.20
2022-08-23T09:16:46.256Z,8.18
2022-08-23T09:19:13.429Z,8.77
2022-08-23T09:21:54.927Z,7.50
2022-08-23T09:24:22.733Z,8.13
2022-08-23T09:26:59.335Z,8.93
2022-08-23T09:29:28.560Z,8.70
2022-08-23T09:32:06.957Z,8.32
2022-08-23T09:34:36.712Z,7.50
2022-08-23T09:37:13.214Z,8.52
2022-08-23T09:39:44.249Z,8.27
2022-08-23T09:42:31.882Z,9.38
2022-08-23T09:45:00.491Z,7.90
2022-08-23T09:47:34.142Z,9.20
2022-08-23T09:50:38.932Z,8.68
2022-08-23T09:53:09.270Z,8.30
2022-08-23T09:55:42.497Z,8.38
2022-08-23T09:58:37.590Z,8.65
2022-08-23T10:01:11.848Z,8.95
2022-08-23T10:03:40.741Z,9.35
2022-08-23T10:06:31.246Z,8.55
2022-08-23T10:09:05.459Z,8.43
2022-08-23T10:11:46.018Z,9.57
2022-08-23T10:14:18.790Z,10.00
2022-08-23T10:17:20.683Z,10.23
2022-08-23T10:20:37.548Z,8.48
2022-08-23T10:23:17.417Z,8.93
2022-08-23T10:25:58.346Z,8.57
2022-08-23T10:28:56.201Z,8.30
2022-08-23T10:31:59.291Z,8.10
2022-08-23T10:34:46.027Z,7.70
2022-08-23T10:37:38.775Z,9.50
2022-08-23T10:40:14.751Z,8.25
2022-08-23T10:43:05.326Z,7.63
2022-08-23T10:45:36.396Z,8.88
2022-08-23T10:48:15.805Z,7.88
2022-08-23T10:50:54.618Z,8.85
2022-08-23T10:53:31.587Z,7.80
2022-08-23T10:56:13.459Z,7.80
2022-08-23T10:58:56.154Z,7.65
2022-08-23T11:01:46.246Z,8.25
2022-08-23T11:04:24.458Z,8.73
2022-08-23T11:07:27.710Z,7.57
2022-08-23T11:10:09.986Z,7.68
2022-08-23T11:12:57.234Z,7.90
2022-08-23T11:15:45.316Z,8.38
2022-08-23T11:18:33.143Z,8.07
2022-08-23T11:21:09.095Z,7.90
2022-08-23T11:23:51.202Z,7.75
2022-08-23T11:26:27.743Z,7.78
2022-08-23T11:29:01.155Z,8.07
2022-08-23T11:31:35.265Z,7.18
2022-08-23T11:34:02.662Z,8.23
2022-08-23T11:36:31.909Z,7.25
2022-08-23T11:39:00.346Z,8.70
2022-08-23T11:41:31.700Z,7.93
2022-08-23T11:44:01.675Z,7.95
2022-08-23T11:46:35.160Z,7.55
2022-08-23T11:49:16.433Z,8.18
2022-08-23T11:51:58.992Z,7.45
2022-08-23T11:55:03.448Z,7.32
2022-08-23T11:57:36.819Z,7.95
2022-08-23T12:00:26.034Z,7.65
2022-08-23T12:03:34.401Z,8.85
2022-08-23T12:06:39.237Z,7.63
2022-08-23T12:09:22.563Z,7.95
2022-08-23T12:11:55.360Z,7.85
2022-08-23T12:14:36.618Z,7.97
2022-08-23T12:17:28.556Z,8.23
2022-08-23T12:20:05.414Z,7.57
2022-08-23T12:23:08.145Z,7.65
2022-08-23T12:25:35.806Z,7.60
2022-08-23T12:28:31.573Z,7.45
2022-08-23T12:31:14.231Z,8.32
2022-08-23T12:33:51.721Z,7.63
2022-08-23T12:36:28.143Z,6.68
2022-08-23T12:39:05.018Z,8.68
2022-08-23T12:41:44.013Z,8.02
2022-08-23T12:44:10.892Z,6.95
2022-08-23T12:46:42.460Z,7.82
2022-08-23T12:49:22.282Z,8.02
2022-08-23T12:51:51.482Z,7.10
2022-08-23T12:54:22.654Z,7.13
2022-08-23T12:56:54.268Z,6.80
2022-08-23T12:59:34.768Z,7.90
2022-08-23T13:02:05.659Z,7.65
2022-08-23T13:04:34.991Z,8.00
2022-08-23T13:07:05.831Z,6.93
2022-08-23T13:09:37.765Z,6.82
2022-08-23T13:12:06.426Z,8.20
2022-08-23T13:14:39.720Z,7.18
2022-08-23T13:17:12.848Z,7.30
2022-08-23T13:19:39.791Z,6.70
2022-08-23T13:22:19.374Z,7.00
2022-08-23T13:25:24.511Z,6.57
2022-08-23T13:27:46.011Z,7.53
2022-08-23T13:30:13.045Z,7.35
2022-08-23T13:32:47.155Z,6.75
2022-08-23T13:35:34.171Z,8.02
2022-08-23T13:38:18.237Z,7.45
2022-08-23T13:40:59.882Z,6.35
2022-08-23T13:43:31.873Z,6.28
2022-08-23T13:46:09.230Z,6.57
2022-08-23T13:48:37.631Z,6.65
2022-08-23T13:51:40.966Z,6.60
2022-08-23T13:54:13.431Z,5.72
2022-08-23T13:56:53.843Z,5.90
2022-08-23T13:59:56.410Z,5.80
2022-08-23T14:02:24.457Z,6.20
2022-08-23T14:04:51.924Z,5.43
2022-08-23T14:07:19.626Z,6.43
2022-08-23T14:09:46.917Z,5.78
2022-08-23T14:12:23.057Z,5.95
2022-08-23T14:14:50.649Z,4.80
2022-08-23T14:17:20.422Z,5.80
2022-08-23T14:20:32.983Z,5.88
2022-08-23T14:22:36.239Z,5.88
2022-08-23T14:25:03.971Z,5.95
2022-08-23T14:27:30.919Z,5.25
2022-08-23T14:29:58.531Z,5.15
2022-08-23T14:32:25.577Z,5.43
2022-08-23T14:34:52.603Z,4.63
2022-08-23T14:38:00.559Z,5.60
2022-08-23T14:40:07.462Z,6.70
2022-08-23T14:42:34.684Z,5.10
2022-08-23T14:45:01.831Z,6.43
2022-08-23T14:47:29.468Z,5.38
2022-08-23T14:49:56.720Z,6.00
2022-08-23T14:52:23.721Z,6.38
2022-08-23T14:54:50.891Z,6.63
2022-08-23T14:57:18.060Z,5.70
2022-08-23T14:59:44.957Z,5.25
2022-08-23T15:02:13.259Z,5.47
2022-08-23T15:04:41.755Z,5.28
2022-08-23T15:07:18.607Z,5.70
2022-08-23T15:09:49.252Z,5.78
2022-08-23T15:15:12.119Z,5.88
2022-08-23T15:17:52.071Z,6.57
2022-08-23T15:20:21.328Z,5.82
2022-08-23T15:22:55.582Z,4.80
2022-08-23T15:25:25.552Z,5.10
2022-08-23T15:27:52.614Z,4.72
2022-08-23T15:30:19.685Z,4.70
2022-08-23T15:32:52.128Z,5.53
2022-08-23T15:35:24.287Z,5.50
2022-08-23T15:37:52.545Z,5.82
2022-08-23T15:40:19.609Z,6.30
2022-08-23T15:42:46.601Z,5.18
2022-08-23T15:45:13.717Z,5.07
2022-08-23T15:47:51.785Z,5.65
2022-08-23T15:50:21.963Z,5.65
2022-08-23T15:52:48.923Z,5.07
2022-08-23T15:55:16.809Z,5.78
2022-08-23T15:57:49.365Z,4.85
2022-08-23T16:00:18.421Z,5.80
2022-08-23T16:03:27.770Z,5.57
2022-08-23T16:05:37.855Z,6.00
2022-08-23T16:08:06.251Z,5.03
2022-08-23T16:10:33.523Z,5.07
2022-08-23T16:13:01.157Z,5.47
2022-08-23T16:15:28.390Z,5.10
2022-08-23T16:17:55.668Z,5.22
2022-08-23T16:20:22.718Z,4.88
2022-08-23T16:22:50.355Z,5.85
2022-08-23T16:25:17.277Z,5.00
2022-08-23T16:27:44.513Z,5.75
2022-08-23T16:30:13.980Z,6.28
2022-08-23T16:32:41.706Z,5.55
2022-08-23T16:35:09.454Z,6.07
2022-08-23T16:37:36.725Z,5.82
2022-08-23T16:40:08.020Z,6.30
2022-08-23T16:42:35.019Z,5.25
2022-08-23T16:45:02.261Z,5.05
2022-08-23T16:47:32.426Z,5.10
2022-08-23T16:49:59.365Z,5.57
2022-08-23T16:52:33.444Z,5.05
2022-08-23T16:55:07.172Z,5.57
2022-08-23T16:57:34.362Z,6.25
2022-08-23T17:00:01.756Z,5.50
2022-08-23T17:02:35.476Z,5.35
2022-08-23T17:05:04.351Z,4.85
2022-08-23T17:07:31.232Z,5.10
2022-08-23T17:09:58.164Z,4.90
2022-08-23T17:12:25.655Z,5.18
2022-08-23T17:14:54.901Z,5.10
2022-08-23T17:17:21.815Z,5.93
2022-08-23T17:19:49.011Z,5.60
2022-08-23T17:22:16.124Z,6.15
2022-08-23T17:24:43.078Z,5.53
2022-08-23T17:27:10.460Z,6.18
2022-08-23T17:29:46.424Z,5.15
2022-08-23T17:32:13.964Z,5.80
2022-08-23T17:34:41.151Z,6.30
2022-08-23T17:37:21.596Z,5.97
2022-08-23T17:39:50.321Z,5.25
2022-08-23T17:42:21.450Z,5.45
2022-08-23T17:44:48.451Z,5.18
2022-08-23T17:47:17.706Z,4.80
2022-08-23T17:49:45.894Z,4.68
2022-08-23T17:52:13.029Z,4.75
2022-08-23T17:54:40.713Z,4.60
2022-08-23T17:57:09.099Z,5.25
2022-08-23T17:59:36.813Z,4.82
2022-08-23T18:02:04.540Z,5.95
2022-08-23T18:04:31.804Z,4.70
2022-08-23T18:06:59.382Z,4.75
2022-08-23T18:09:26.614Z,5.43
2022-08-23T18:11:54.146Z,5.70
2022-08-23T18:14:21.147Z,4.25
2022-08-23T18:16:48.517Z,5.55
2022-08-23T18:19:15.601Z,5.70
2022-08-23T18:21:43.485Z,4.28
2022-08-23T18:24:10.792Z,4.85
2022-08-23T18:26:56.774Z,4.60
2022-08-23T18:29:24.071Z,6.25
2022-08-23T18:31:51.164Z,5.50
2022-08-23T18:34:19.351Z,5.75
2022-08-23T18:36:47.060Z,6.60
2022-08-23T18:39:15.035Z,5.53
2022-08-23T18:41:42.269Z,5.50
2022-08-23T18:44:10.203Z,6.47
2022-08-23T18:46:39.330Z,6.35
2022-08-23T18:49:07.555Z,9.18
2022-08-23T18:51:34.999Z,4.85
2022-08-23T18:54:01.892Z,5.00
2022-08-23T18:56:28.838Z,5.38
2022-08-23T18:58:56.025Z,5.78
2022-08-23T19:01:30.323Z,6.25
2022-08-23T19:04:02.624Z,7.68
2022-08-23T19:06:29.986Z,7.32
2022-08-23T19:08:57.062Z,8.48
2022-08-23T19:11:24.506Z,7.50
2022-08-23T19:13:51.389Z,6.28
2022-08-23T19:16:19.702Z,6.13
2022-08-23T19:18:49.922Z,5.70
2022-08-23T19:21:19.151Z,6.93
2022-08-23T19:23:46.362Z,5.28
2022-08-23T19:26:15.079Z,4.88
2022-08-23T19:28:42.140Z,6.28
2022-08-23T19:31:09.741Z,5.35
2022-08-23T19:33:37.276Z,6.30
2022-08-23T19:36:05.511Z,5.68
2022-08-23T19:38:32.872Z,5.32
2022-08-23T19:41:00.319Z,5.15
2022-08-23T19:43:27.269Z,5.13
2022-08-23T19:45:55.527Z,5.10
2022-08-23T19:48:23.196Z,5.38
2022-08-23T19:50:50.658Z,6.78
2022-08-23T19:53:17.547Z,5.15
2022-08-23T19:55:45.179Z,5.13
2022-08-23T19:58:13.288Z,5.93
2022-08-23T20:00:41.101Z,4.97
2022-08-23T20:03:08.361Z,5.20
2022-08-23T20:05:35.348Z,5.65
2022-08-23T20:08:03.173Z,4.88
2022-08-23T20:10:30.251Z,5.80
2022-08-23T20:12:57.477Z,4.75
2022-08-23T20:15:24.451Z,5.72
2022-08-23T20:17:52.303Z,5.78
2022-08-23T20:20:19.248Z,6.45
2022-08-23T20:23:04.732Z,5.38
2022-08-23T20:25:32.164Z,6.60
2022-08-23T20:27:59.377Z,5.28
2022-08-23T20:30:26.434Z,5.93
2022-08-23T20:32:53.521Z,6.53
2022-08-23T20:35:20.417Z,5.45
2022-08-23T20:37:47.314Z,5.70
2022-08-23T20:40:15.006Z,5.05
2022-08-23T20:42:42.256Z,5.85
2022-08-23T20:45:09.581Z,5.18
2022-08-23T20:47:36.707Z,6.07
2022-08-23T20:50:04.121Z,6.07
2022-08-23T20:52:34.557Z,5.70
2022-08-23T20:55:02.483Z,6.90
2022-08-23T20:57:31.934Z,5.10
2022-08-23T21:00:05.286Z,5.35
2022-08-23T21:02:32.267Z,6.45
2022-08-23T21:04:59.341Z,7.10
2022-08-23T21:07:27.982Z,6.22
2022-08-23T21:09:56.927Z,5.68
2022-08-23T21:12:23.899Z,6.07
2022-08-23T21:14:51.507Z,5.68
2022-08-23T21:17:18.424Z,5.53
2022-08-23T21:19:45.394Z,5.70
2022-08-23T21:22:12.774Z,6.43
2022-08-23T21:24:39.939Z,5.22
2022-08-23T21:27:09.346Z,5.70
2022-08-23T21:29:38.631Z,6.40
2022-08-23T21:32:06.925Z,5.40
2022-08-23T21:34:34.455Z,5.22
2022-08-23T21:37:01.897Z,5.30
2022-08-23T21:39:28.847Z,5.30
2022-08-23T21:41:56.861Z,5.78
2022-08-23T21:44:25.310Z,5.55
2022-08-23T21:46:52.575Z,6.13
2022-08-23T21:49:21.095Z,6.00
2022-08-23T21:51:49.131Z,5.35
2022-08-23T21:54:17.645Z,4.80
2022-08-23T21:56:45.871Z,4.80
2022-08-23T21:59:16.658Z,4.93
2022-08-23T22:01:44.401Z,4.55
2022-08-23T22:04:13.796Z,5.95
2022-08-23T22:06:43.033Z,6.57
2022-08-23T22:09:13.199Z,7.53
2022-08-23T22:11:41.783Z,5.78
2022-08-23T22:14:21.562Z,5.90
2022-08-23T22:16:49.500Z,7.30
2022-08-23T22:19:22.913Z,6.30
2022-08-23T22:21:52.333Z,6.43
2022-08-23T22:24:24.645Z,5.50
2022-08-23T22:26:53.391Z,6.15
2022-08-23T22:29:20.328Z,5.05
2022-08-23T22:31:48.379Z,4.75
2022-08-23T22:34:15.898Z,5.05
2022-08-23T22:36:42.746Z,6.10
2022-08-23T22:39:09.919Z,4.85
2022-08-23T22:41:38.407Z,5.78
2022-08-23T22:44:06.306Z,7.55
2022-08-23T22:46:34.972Z,4.80
2022-08-23T22:49:02.360Z,5.22
2022-08-23T22:51:32.453Z,6.80
2022-08-23T22:54:01.729Z,5.45
2022-08-23T22:56:44.224Z,5.10
2022-08-23T22:59:11.777Z,4.55
2022-08-23T23:01:44.656Z,5.38
2022-08-23T23:04:14.210Z,5.15
2022-08-23T23:06:42.135Z,5.80
2022-08-23T23:09:10.972Z,5.88
2022-08-23T23:11:40.329Z,6.13
2022-08-23T23:14:08.957Z,5.45
2022-08-23T23:16:35.940Z,5.10
2022-08-23T23:19:21.887Z,5.28
2022-08-23T23:21:51.282Z,5.53
2022-08-23T23:24:21.617Z,5.40
2022-08-23T23:26:48.705Z,6.45
2022-08-23T23:29:16.495Z,6.07
2022-08-23T23:31:43.709Z,5.15
2022-08-23T23:34:10.748Z,5.30
2022-08-23T23:36:38.012Z,6.28
2022-08-23T23:39:06.631Z,6.13
2022-08-23T23:41:33.841Z,4.60
2022-08-23T23:44:01.103Z,5.53
2022-08-23T23:46:28.637Z,6.35
2022-08-23T23:48:55.703Z,5.30
2022-08-23T23:51:28.879Z,5.82
2022-08-23T23:53:57.309Z,5.70
2022-08-23T23:56:27.535Z,6.60
2022-08-23T23:58:55.433Z,6.47
